createdAt,value
2024-04-12T00:00:17.831Z,37.96
2024-04-12T00:01:17.823Z,37.89
2024-04-12T00:02:17.879Z,37.91
2024-04-12T00:03:17.933Z,37.93
2024-04-12T00:04:18.038Z,37.95
2024-04-12T00:05:18.022Z,37.95
2024-04-12T00:06:18.142Z,37.94
2024-04-12T00:07:19.370Z,37.95
2024-04-12T00:08:18.200Z,37.92
2024-04-12T00:09:18.253Z,37.93
2024-04-12T00:10:18.268Z,37.94
2024-04-12T00:11:18.538Z,37.95
2024-04-12T00:12:18.370Z,37.93
2024-04-12T00:13:18.391Z,37.91
2024-04-12T00:14:18.500Z,37.89
2024-04-12T00:15:19.421Z,37.92
2024-04-12T00:16:18.592Z,37.88
2024-04-12T00:17:18.712Z,37.88
2024-04-12T00:18:18.550Z,37.88
2024-04-12T00:19:18.585Z,37.90
2024-04-12T00:20:18.611Z,37.91
2024-04-12T00:21:18.689Z,37.90
2024-04-12T00:22:18.723Z,37.90
2024-04-12T00:23:18.798Z,37.96
2024-04-12T00:24:18.883Z,37.90
2024-04-12T00:25:18.944Z,37.92
2024-04-12T00:26:18.959Z,37.91
2024-04-12T00:27:19.032Z,37.93
2024-04-12T00:28:19.074Z,37.88
2024-04-12T00:29:19.139Z,37.94
2024-04-12T00:30:19.239Z,37.89
2024-04-12T00:31:19.246Z,37.92
2024-04-12T00:32:19.348Z,37.91
2024-04-12T00:33:19.457Z,37.91
2024-04-12T00:34:19.392Z,37.89
2024-04-12T00:35:19.449Z,37.90
2024-04-12T00:36:19.565Z,37.92
2024-04-12T00:37:19.643Z,37.94
2024-04-12T00:38:19.622Z,37.93
2024-04-12T00:39:19.685Z,37.89
2024-04-12T00:40:19.744Z,37.89
2024-04-12T00:41:19.807Z,37.87
2024-04-12T00:42:19.891Z,37.88
2024-04-12T00:43:20.076Z,37.87
2024-04-12T00:44:20.004Z,37.89
2024-04-12T00:45:20.103Z,37.84
2024-04-12T00:46:20.143Z,37.87
2024-04-12T00:47:20.229Z,37.91
2024-04-12T00:48:20.330Z,37.90
2024-04-12T00:49:20.323Z,37.89
2024-04-12T00:50:20.347Z,37.88
2024-04-12T00:51:20.449Z,37.88
2024-04-12T00:52:20.492Z,37.90
2024-04-12T00:53:20.560Z,37.88
2024-04-12T00:54:20.604Z,37.87
2024-04-12T00:55:20.654Z,37.88
2024-04-12T00:56:20.760Z,37.85
2024-04-12T00:57:20.776Z,37.86
2024-04-12T00:58:20.843Z,37.88
2024-04-12T00:59:20.925Z,37.83
2024-04-12T01:00:21.488Z,37.88
2024-04-12T01:01:21.028Z,37.88
2024-04-12T01:02:21.111Z,37.85
2024-04-12T01:03:21.220Z,37.89
2024-04-12T01:04:21.225Z,37.88
2024-04-12T01:05:21.433Z,37.89
2024-04-12T01:06:21.309Z,37.86
2024-04-12T01:07:21.356Z,37.87
2024-04-12T01:08:21.413Z,37.88
2024-04-12T01:09:21.656Z,37.87
2024-04-12T01:10:21.624Z,37.87
2024-04-12T01:11:21.835Z,37.87
2024-04-12T01:12:21.692Z,37.86
2024-04-12T01:13:21.756Z,37.85
2024-04-12T01:14:21.801Z,37.82
2024-04-12T01:15:21.842Z,37.86
2024-04-12T01:16:21.926Z,37.88
2024-04-12T01:17:22.040Z,37.85
2024-04-12T01:18:22.689Z,37.87
2024-04-12T01:19:22.119Z,37.86
2024-04-12T01:20:22.219Z,37.83
2024-04-12T01:21:22.263Z,37.82
2024-04-12T01:22:22.339Z,37.84
2024-04-12T01:23:22.384Z,37.83
2024-04-12T01:24:22.448Z,37.84
2024-04-12T01:25:22.511Z,37.86
2024-04-12T01:26:22.568Z,37.83
2024-04-12T01:27:22.632Z,37.82
2024-04-12T01:28:22.679Z,37.85
2024-04-12T01:29:22.721Z,37.83
2024-04-12T01:30:22.792Z,37.83
2024-04-12T01:31:22.844Z,37.85
2024-04-12T01:32:22.962Z,37.85
2024-04-12T01:33:22.986Z,37.84
2024-04-12T01:34:23.023Z,37.83
2024-04-12T01:35:23.077Z,37.82
2024-04-12T01:36:23.174Z,37.81
2024-04-12T01:37:23.202Z,37.80
2024-04-12T01:38:23.259Z,37.80
2024-04-12T01:39:23.365Z,37.82
2024-04-12T01:40:23.418Z,37.81
2024-04-12T01:41:23.484Z,37.80
2024-04-12T01:42:23.536Z,37.81
2024-04-12T01:43:25.540Z,37.81
2024-04-12T01:44:23.663Z,37.81
2024-04-12T01:45:23.830Z,37.83
2024-04-12T01:46:23.766Z,37.78
2024-04-12T01:47:23.843Z,37.80
2024-04-12T01:48:24.146Z,37.81
2024-04-12T01:49:24.055Z,37.79
2024-04-12T01:50:24.366Z,37.81
2024-04-12T01:51:23.963Z,37.79
2024-04-12T01:52:24.031Z,37.81
2024-04-12T01:53:24.181Z,37.78
2024-04-12T01:54:24.095Z,37.80
2024-04-12T01:55:24.160Z,37.78
2024-04-12T01:56:24.211Z,37.80
2024-04-12T01:57:24.207Z,37.77
2024-04-12T01:58:24.255Z,37.80
2024-04-12T01:59:24.318Z,37.81
2024-04-12T02:00:24.330Z,37.78
2024-04-12T02:01:24.409Z,37.77
2024-04-12T02:02:24.423Z,37.76
2024-04-12T02:03:24.531Z,37.77
2024-04-12T02:04:24.613Z,37.77
2024-04-12T02:05:24.569Z,37.76
2024-04-12T02:06:24.602Z,37.78
2024-04-12T02:07:24.625Z,37.76
2024-04-12T02:08:24.690Z,37.77
2024-04-12T02:09:24.746Z,37.76
2024-04-12T02:10:24.855Z,37.76
2024-04-12T02:11:25.160Z,37.73
2024-04-12T02:12:24.885Z,37.76
2024-04-12T02:13:25.118Z,37.77
2024-04-12T02:14:24.948Z,37.78
2024-04-12T02:15:24.990Z,37.75
2024-04-12T02:16:25.069Z,37.73
2024-04-12T02:17:25.104Z,37.76
2024-04-12T02:18:25.566Z,37.74
2024-04-12T02:19:25.173Z,37.78
2024-04-12T02:20:25.231Z,37.75
2024-04-12T02:21:25.292Z,37.74
2024-04-12T02:22:25.333Z,37.75
2024-04-12T02:23:25.383Z,37.76
2024-04-12T02:24:25.413Z,37.75
2024-04-12T02:25:25.492Z,37.73
2024-04-12T02:26:25.950Z,37.72
2024-04-12T02:27:25.571Z,37.78
2024-04-12T02:28:25.617Z,37.75
2024-04-12T02:29:25.701Z,37.76
2024-04-12T02:30:25.738Z,37.73
2024-04-12T02:31:25.769Z,37.75
2024-04-12T02:32:25.897Z,37.75
2024-04-12T02:33:25.984Z,37.72
2024-04-12T02:34:25.937Z,37.75
2024-04-12T02:35:26.004Z,37.74
2024-04-12T02:36:26.011Z,37.77
2024-04-12T02:37:26.060Z,37.75
2024-04-12T02:38:26.165Z,37.73
2024-04-12T02:39:26.178Z,37.74
2024-04-12T02:40:26.212Z,37.74
2024-04-12T02:41:26.249Z,37.73
2024-04-12T02:42:26.302Z,37.72
2024-04-12T02:43:26.369Z,37.75
2024-04-12T02:44:26.583Z,37.69
2024-04-12T02:45:26.485Z,37.71
2024-04-12T02:46:26.587Z,37.73
2024-04-12T02:47:26.635Z,37.72
2024-04-12T02:48:26.786Z,37.73
2024-04-12T02:49:26.758Z,37.73
2024-04-12T02:50:26.815Z,37.73
2024-04-12T02:51:26.890Z,37.73
2024-04-12T02:52:26.935Z,37.70
2024-04-12T02:53:27.008Z,37.69
2024-04-12T02:54:27.337Z,37.70
2024-04-12T02:55:27.155Z,37.72
2024-04-12T02:56:27.197Z,37.71
2024-04-12T02:57:27.276Z,37.72
2024-04-12T02:58:27.341Z,37.71
2024-04-12T02:59:27.392Z,37.73
2024-04-12T03:00:27.560Z,37.70
2024-04-12T03:01:27.700Z,37.71
2024-04-12T03:02:27.665Z,37.69
2024-04-12T03:03:27.745Z,37.68
2024-04-12T03:04:27.740Z,37.70
2024-04-12T03:05:27.847Z,37.68
2024-04-12T03:06:27.894Z,37.68
2024-04-12T03:07:27.933Z,37.72
2024-04-12T03:08:28.012Z,37.71
2024-04-12T03:09:28.075Z,37.68
2024-04-12T03:10:28.158Z,37.70
2024-04-12T03:11:28.235Z,37.68
2024-04-12T03:12:28.314Z,37.71
2024-04-12T03:13:28.362Z,37.70
2024-04-12T03:14:28.431Z,37.69
2024-04-12T03:15:28.560Z,37.70
2024-04-12T03:16:28.601Z,37.69
2024-04-12T03:17:28.671Z,37.71
2024-04-12T03:18:29.224Z,37.72
2024-04-12T03:19:28.786Z,37.70
2024-04-12T03:20:28.874Z,37.69
2024-04-12T03:21:28.995Z,37.68
2024-04-12T03:22:29.012Z,37.71
2024-04-12T03:23:29.095Z,37.71
2024-04-12T03:24:29.145Z,37.71
2024-04-12T03:25:29.212Z,37.70
2024-04-12T03:26:29.330Z,37.70
2024-04-12T03:27:29.367Z,37.68
2024-04-12T03:28:29.451Z,37.67
2024-04-12T03:29:29.537Z,37.73
2024-04-12T03:30:29.585Z,37.73
2024-04-12T03:31:29.662Z,37.71
2024-04-12T03:32:29.754Z,37.71
2024-04-12T03:33:29.945Z,37.71
2024-04-12T03:34:29.876Z,37.71
2024-04-12T03:35:29.950Z,37.67
2024-04-12T03:36:30.024Z,37.68
2024-04-12T03:37:30.102Z,37.67
2024-04-12T03:38:30.165Z,37.66
2024-04-12T03:39:30.224Z,37.68
2024-04-12T03:40:30.315Z,37.70
2024-04-12T03:41:30.388Z,37.67
2024-04-12T03:42:30.445Z,37.69
2024-04-12T03:43:30.515Z,37.67
2024-04-12T03:44:30.620Z,37.67
2024-04-12T03:45:30.674Z,37.68
2024-04-12T03:46:30.751Z,37.65
2024-04-12T03:47:30.878Z,37.62
2024-04-12T03:48:31.028Z,37.61
2024-04-12T03:49:30.951Z,37.61
2024-04-12T03:50:31.035Z,37.59
2024-04-12T03:51:31.096Z,37.58
2024-04-12T03:52:31.165Z,37.57
2024-04-12T03:53:31.252Z,37.54
2024-04-12T03:54:31.309Z,37.57
2024-04-12T03:55:31.396Z,37.52
2024-04-12T03:56:31.444Z,37.53
2024-04-12T03:57:31.569Z,37.56
2024-04-12T03:58:31.590Z,37.56
2024-04-12T03:59:31.654Z,37.53
2024-04-12T04:00:31.731Z,37.53
2024-04-12T04:01:31.826Z,37.52
2024-04-12T04:02:31.879Z,37.49
2024-04-12T04:03:31.968Z,37.50
2024-04-12T04:04:31.998Z,37.49
2024-04-12T04:05:32.083Z,37.49
2024-04-12T04:06:32.124Z,37.50
2024-04-12T04:07:32.210Z,37.47
2024-04-12T04:08:32.259Z,37.47
2024-04-12T04:09:32.323Z,37.46
2024-04-12T04:10:32.437Z,37.45
2024-04-12T04:11:32.466Z,37.46
2024-04-12T04:12:32.524Z,37.44
2024-04-12T04:13:32.619Z,37.42
2024-04-12T04:14:32.682Z,37.43
2024-04-12T04:15:32.724Z,37.42
2024-04-12T04:16:32.783Z,37.39
2024-04-12T04:17:40.148Z,37.51
2024-04-12T04:18:40.218Z,37.44
2024-04-12T04:19:40.072Z,37.43
2024-04-12T04:20:40.077Z,37.40
2024-04-12T04:21:40.082Z,37.40
2024-04-12T04:22:40.091Z,37.38
2024-04-12T04:23:40.083Z,37.38
2024-04-12T04:24:40.084Z,37.37
2024-04-12T04:25:40.133Z,37.37
2024-04-12T04:26:40.173Z,37.37
2024-04-12T04:27:40.229Z,37.35
2024-04-12T04:28:40.069Z,37.36
2024-04-12T04:29:40.100Z,37.37
2024-04-12T04:30:40.111Z,37.35
2024-04-12T04:31:40.082Z,37.36
2024-04-12T04:32:40.306Z,37.33
2024-04-12T04:33:40.273Z,37.32
2024-04-12T04:34:40.071Z,37.32
2024-04-12T04:35:40.102Z,37.31
2024-04-12T04:36:40.104Z,37.30
2024-04-12T04:37:40.260Z,37.32
2024-04-12T04:38:40.144Z,37.31
2024-04-12T04:39:40.134Z,37.29
2024-04-12T04:40:40.157Z,37.28
2024-04-12T04:41:40.207Z,37.28
2024-04-12T04:42:40.125Z,37.29
2024-04-12T04:43:40.137Z,37.30
2024-04-12T04:44:40.154Z,37.28
2024-04-12T04:45:40.322Z,37.26
2024-04-12T04:46:40.255Z,37.27
2024-04-12T04:47:40.469Z,37.25
2024-04-12T04:48:40.627Z,37.25
2024-04-12T04:49:40.452Z,37.25
2024-04-12T04:50:40.543Z,37.24
2024-04-12T04:51:40.609Z,37.23
2024-04-12T04:52:40.650Z,37.23
2024-04-12T04:53:40.760Z,37.24
2024-04-12T04:54:40.868Z,37.24
2024-04-12T04:55:40.882Z,37.25
2024-04-12T04:56:40.988Z,37.24
2024-04-12T04:57:41.050Z,37.24
2024-04-12T04:58:41.154Z,37.25
2024-04-12T04:59:41.174Z,37.24
2024-04-12T05:00:41.291Z,37.24
2024-04-12T05:01:41.348Z,37.25
2024-04-12T05:02:41.370Z,37.25
2024-04-12T05:03:41.472Z,37.25
2024-04-12T05:04:41.502Z,37.26
2024-04-12T05:05:41.595Z,37.25
2024-04-12T05:06:44.942Z,37.24
2024-04-12T05:07:41.628Z,37.23
2024-04-12T05:08:41.650Z,37.25
2024-04-12T05:09:41.636Z,37.25
2024-04-12T05:10:41.646Z,37.25
2024-04-12T05:11:41.818Z,37.22
2024-04-12T05:12:41.735Z,37.25
2024-04-12T05:13:41.670Z,37.24
2024-04-12T05:14:41.684Z,37.23
2024-04-12T05:15:41.897Z,37.23
2024-04-12T05:16:41.663Z,37.23
2024-04-12T05:17:41.808Z,37.25
2024-04-12T05:18:41.850Z,37.32
2024-04-12T05:19:41.970Z,37.29
2024-04-12T05:20:41.695Z,37.27
2024-04-12T05:21:41.670Z,37.26
2024-04-12T05:22:41.669Z,37.24
2024-04-12T05:23:41.672Z,37.33
2024-04-12T05:24:41.858Z,37.33
2024-04-12T05:25:41.837Z,37.34
2024-04-12T05:26:41.689Z,37.38
2024-04-12T05:27:41.674Z,37.33
2024-04-12T05:28:41.668Z,37.26
2024-04-12T05:29:41.715Z,37.27
2024-04-12T05:30:41.685Z,37.25
2024-04-12T05:31:41.673Z,37.25
2024-04-12T05:32:41.809Z,37.31
2024-04-12T05:33:41.715Z,37.45
2024-04-12T05:34:41.674Z,37.41
2024-04-12T05:35:41.772Z,37.38
2024-04-12T05:36:41.682Z,37.39
2024-04-12T05:37:41.690Z,37.35
2024-04-12T05:38:41.771Z,37.42
2024-04-12T05:39:41.684Z,37.54
2024-04-12T05:40:41.695Z,37.52
2024-04-12T05:41:41.772Z,37.58
2024-04-12T05:42:41.686Z,37.66
2024-04-12T05:43:41.694Z,37.73
2024-04-12T05:44:41.768Z,37.70
2024-04-12T05:45:41.751Z,37.78
2024-04-12T05:46:41.713Z,37.36
2024-04-12T05:47:42.026Z,37.39
2024-04-12T05:48:41.762Z,36.85
2024-04-12T05:49:41.710Z,36.67
2024-04-12T05:50:41.794Z,36.66
2024-04-12T05:51:41.725Z,37.12
2024-04-12T05:52:41.803Z,37.38
2024-04-12T05:53:41.847Z,36.68
2024-04-12T05:54:41.847Z,36.85
2024-04-12T05:55:41.846Z,37.41
2024-04-12T05:56:41.945Z,37.98
2024-04-12T05:57:41.984Z,38.51
2024-04-12T05:58:42.024Z,38.84
2024-04-12T05:59:42.278Z,38.88
2024-04-12T06:00:42.201Z,38.88
2024-04-12T06:01:42.327Z,39.39
2024-04-12T06:02:42.459Z,39.58
2024-04-12T06:03:42.498Z,39.74
2024-04-12T06:04:42.528Z,39.21
2024-04-12T06:05:42.620Z,39.28
2024-04-12T06:06:42.757Z,38.99
2024-04-12T06:07:42.829Z,39.11
2024-04-12T06:08:42.924Z,38.82
2024-04-12T06:09:42.988Z,39.04
2024-04-12T06:10:43.039Z,38.79
2024-04-12T06:11:43.382Z,38.63
2024-04-12T06:12:43.219Z,38.76
2024-04-12T06:13:43.262Z,38.85
2024-04-12T06:14:43.320Z,38.53
2024-04-12T06:15:43.390Z,38.59
2024-04-12T06:16:43.552Z,38.60
2024-04-12T06:17:43.626Z,38.85
2024-04-12T06:18:43.641Z,38.67
2024-04-12T06:19:43.799Z,38.77
2024-04-12T06:20:43.887Z,38.60
2024-04-12T06:21:49.009Z,38.67
2024-04-12T06:22:43.981Z,38.60
2024-04-12T06:23:43.995Z,38.71
2024-04-12T06:24:44.172Z,38.73
2024-04-12T06:25:43.997Z,38.66
2024-04-12T06:26:44.035Z,38.58
2024-04-12T06:27:43.996Z,38.38
2024-04-12T06:28:44.007Z,38.42
2024-04-12T06:29:44.110Z,38.46
2024-04-12T06:30:44.166Z,38.44
2024-04-12T06:31:44.270Z,38.21
2024-04-12T06:32:44.427Z,38.34
2024-04-12T06:33:44.517Z,38.10
2024-04-12T06:34:44.575Z,38.46
2024-04-12T06:35:44.704Z,38.27
2024-04-12T06:36:44.773Z,38.18
2024-04-12T06:37:44.861Z,38.51
2024-04-12T06:38:45.123Z,38.61
2024-04-12T06:39:45.126Z,38.55
2024-04-12T06:40:45.186Z,38.79
2024-04-12T06:41:45.350Z,38.91
2024-04-12T06:42:45.387Z,38.93
2024-04-12T06:43:45.491Z,38.62
2024-04-12T06:44:45.606Z,38.59
2024-04-12T06:45:45.696Z,38.37
2024-04-12T06:46:45.871Z,38.26
2024-04-12T06:47:46.029Z,38.98
2024-04-12T06:48:46.128Z,38.97
2024-04-12T06:49:46.616Z,39.06
2024-04-12T06:50:46.156Z,38.66
2024-04-12T06:51:46.181Z,38.84
2024-04-12T06:52:46.200Z,38.28
2024-04-12T06:53:46.883Z,38.05
2024-04-12T06:54:46.381Z,37.78
2024-04-12T06:55:46.305Z,37.80
2024-04-12T06:56:46.420Z,38.29
2024-04-12T06:57:46.394Z,38.48
2024-04-12T06:58:46.483Z,38.60
2024-04-12T06:59:46.592Z,39.02
2024-04-12T07:00:46.661Z,39.04
2024-04-12T07:01:46.752Z,39.19
2024-04-12T07:02:46.974Z,39.34
2024-04-12T07:03:47.212Z,39.24
2024-04-12T07:04:47.107Z,39.16
2024-04-12T07:05:47.212Z,39.11
2024-04-12T07:06:47.294Z,39.01
2024-04-12T07:07:47.406Z,38.97
2024-04-12T07:08:47.488Z,38.95
2024-04-12T07:09:47.632Z,38.90
2024-04-12T07:10:47.663Z,38.93
2024-04-12T07:11:47.777Z,38.90
2024-04-12T07:12:47.787Z,38.93
2024-04-12T07:13:47.854Z,38.94
2024-04-12T07:14:47.966Z,38.94
2024-04-12T07:15:47.984Z,38.95
2024-04-12T07:16:48.120Z,39.02
2024-04-12T07:17:48.171Z,39.01
2024-04-12T07:18:48.198Z,39.06
2024-04-12T07:19:48.220Z,39.10
2024-04-12T07:20:48.321Z,39.13
2024-04-12T07:21:48.400Z,39.21
2024-04-12T07:22:48.420Z,39.18
2024-04-12T07:23:48.503Z,39.28
2024-04-12T07:24:48.500Z,39.30
2024-04-12T07:25:48.552Z,39.34
2024-04-12T07:26:48.728Z,39.39
2024-04-12T07:27:48.705Z,39.45
2024-04-12T07:28:48.747Z,39.50
2024-04-12T07:29:48.901Z,39.51
2024-04-12T07:30:48.926Z,39.64
2024-04-12T07:31:48.942Z,39.54
2024-04-12T07:32:49.086Z,39.57
2024-04-12T07:33:49.154Z,38.80
2024-04-12T07:34:49.164Z,38.78
2024-04-12T07:35:49.206Z,38.53
2024-04-12T07:36:49.248Z,39.19
2024-04-12T07:37:49.294Z,39.23
2024-04-12T07:38:49.373Z,39.57
2024-04-12T07:39:49.405Z,39.32
2024-04-12T07:40:49.473Z,39.09
2024-04-12T07:41:49.600Z,39.09
2024-04-12T07:42:49.663Z,39.35
2024-04-12T07:43:49.647Z,38.98
2024-04-12T07:44:49.823Z,38.87
2024-04-12T07:45:49.826Z,38.71
2024-04-12T07:46:49.864Z,38.93
2024-04-12T07:47:50.089Z,38.64
2024-04-12T07:48:50.232Z,38.70
2024-04-12T07:49:50.153Z,39.13
2024-04-12T07:50:50.297Z,39.15
2024-04-12T07:51:50.393Z,39.14
2024-04-12T07:52:50.487Z,39.06
2024-04-12T07:53:50.586Z,38.93
2024-04-12T07:54:50.699Z,38.91
2024-04-12T07:55:53.428Z,38.86
2024-04-12T07:56:50.849Z,38.76
2024-04-12T07:57:50.840Z,38.68
2024-04-12T07:58:50.832Z,38.70
2024-04-12T07:59:50.856Z,38.68
2024-04-12T08:00:50.842Z,38.52
2024-04-12T08:01:50.869Z,38.42
2024-04-12T08:02:51.019Z,38.39
2024-04-12T08:03:51.034Z,38.33
2024-04-12T08:04:50.845Z,38.22
2024-04-12T08:05:50.902Z,38.07
2024-04-12T08:06:50.861Z,37.96
2024-04-12T08:07:50.843Z,37.94
2024-04-12T08:08:50.907Z,37.84
2024-04-12T08:09:50.866Z,37.94
2024-04-12T08:10:50.874Z,38.01
2024-04-12T08:11:50.888Z,38.07
2024-04-12T08:12:50.883Z,38.06
2024-04-12T08:13:50.882Z,38.06
2024-04-12T08:14:50.888Z,38.13
2024-04-12T08:15:50.879Z,38.04
2024-04-12T08:16:50.919Z,37.90
2024-04-12T08:17:51.110Z,37.87
2024-04-12T08:18:50.948Z,37.90
2024-04-12T08:19:50.909Z,37.89
2024-04-12T08:20:50.898Z,38.02
2024-04-12T08:21:50.881Z,38.07
2024-04-12T08:22:50.900Z,38.06
2024-04-12T08:23:50.961Z,38.17
2024-04-12T08:24:51.011Z,38.30
2024-04-12T08:25:50.879Z,38.41
2024-04-12T08:26:50.917Z,38.41
2024-04-12T08:27:51.002Z,38.36
2024-04-12T08:28:51.133Z,38.39
2024-04-12T08:29:51.230Z,38.35
2024-04-12T08:30:51.330Z,38.26
2024-04-12T08:31:51.582Z,38.16
2024-04-12T08:32:51.734Z,38.06
2024-04-12T08:33:52.752Z,38.14
2024-04-12T08:34:51.803Z,38.20
2024-04-12T08:35:51.935Z,38.23
2024-04-12T08:36:52.014Z,38.22
2024-04-12T08:37:55.041Z,38.28
2024-04-12T08:38:52.169Z,38.31
2024-04-12T08:39:52.129Z,38.27
2024-04-12T08:40:52.154Z,38.27
2024-04-12T08:41:52.207Z,38.24
2024-04-12T08:42:52.133Z,38.33
2024-04-12T08:43:52.166Z,38.36
2024-04-12T08:44:52.160Z,38.46
2024-04-12T08:45:52.153Z,38.44
2024-04-12T08:46:52.170Z,38.45
2024-04-12T08:47:52.208Z,38.41
2024-04-12T08:48:52.266Z,38.33
2024-04-12T08:49:59.540Z,38.36
2024-04-12T08:50:59.563Z,38.38
2024-04-12T08:51:59.585Z,38.35
2024-04-12T08:52:59.569Z,38.37
2024-04-12T08:53:59.610Z,38.19
2024-04-12T08:54:59.589Z,38.07
2024-04-12T08:55:59.606Z,38.07
2024-04-12T08:56:59.636Z,38.12
2024-04-12T08:57:59.742Z,38.09
2024-04-12T08:58:59.837Z,38.06
2024-04-12T09:00:00.361Z,38.15
2024-04-12T09:01:00.050Z,38.11
2024-04-12T09:02:00.062Z,38.00
2024-04-12T09:03:01.296Z,38.00
2024-04-12T09:04:00.183Z,38.15
2024-04-12T09:05:00.211Z,38.26
2024-04-12T09:06:00.283Z,38.32
2024-04-12T09:07:00.356Z,38.45
2024-04-12T09:08:02.048Z,38.34
2024-04-12T09:09:00.514Z,38.24
2024-04-12T09:10:00.467Z,38.23
2024-04-12T09:11:04.004Z,38.25
2024-04-12T09:12:00.559Z,38.31
2024-04-12T09:13:00.499Z,38.42
2024-04-12T09:14:00.485Z,38.57
2024-04-12T09:15:00.688Z,38.69
2024-04-12T09:16:00.468Z,38.76
2024-04-12T09:17:00.495Z,38.82
2024-04-12T09:18:00.632Z,38.85
2024-04-12T09:19:00.631Z,38.82
2024-04-12T09:20:00.498Z,38.90
2024-04-12T09:21:02.804Z,38.80
2024-04-12T09:22:00.502Z,38.68
2024-04-12T09:23:00.491Z,38.66
2024-04-12T09:24:00.580Z,38.56
2024-04-12T09:25:00.547Z,38.43
2024-04-12T09:26:01.745Z,38.40
2024-04-12T09:27:00.582Z,38.33
2024-04-12T09:28:00.530Z,38.33
2024-04-12T09:29:00.546Z,38.28
2024-04-12T09:30:00.597Z,38.15
2024-04-12T09:31:00.619Z,38.09
2024-04-12T09:32:00.560Z,38.14
2024-04-12T09:33:00.677Z,38.15
2024-04-12T09:34:00.888Z,38.13
2024-04-12T09:35:00.639Z,38.19
2024-04-12T09:36:00.743Z,38.26
2024-04-12T09:37:00.769Z,38.25
2024-04-12T09:38:00.901Z,38.24
2024-04-12T09:39:01.079Z,38.22
2024-04-12T09:40:01.121Z,38.19
2024-04-12T09:41:01.213Z,38.23
2024-04-12T09:42:01.420Z,38.26
2024-04-12T09:43:01.503Z,38.25
2024-04-12T09:44:01.559Z,38.29
2024-04-12T09:45:01.876Z,38.28
2024-04-12T09:46:01.822Z,38.25
2024-04-12T09:47:01.986Z,38.32
2024-04-12T09:48:02.181Z,38.55
2024-04-12T09:49:02.246Z,38.41
2024-04-12T09:50:02.238Z,38.90
2024-04-12T09:51:02.399Z,39.09
2024-04-12T09:52:02.465Z,39.10
2024-04-12T09:53:02.544Z,39.16
2024-04-12T09:54:02.670Z,39.12
2024-04-12T09:55:02.762Z,39.17
2024-04-12T09:56:03.799Z,39.15
2024-04-12T09:57:03.027Z,39.40
2024-04-12T09:58:02.932Z,39.12
2024-04-12T09:59:02.991Z,39.06
2024-04-12T10:00:03.037Z,38.98
2024-04-12T10:01:03.119Z,39.36
2024-04-12T10:02:03.174Z,39.48
2024-04-12T10:03:03.339Z,39.42
2024-04-12T10:04:03.406Z,39.44
2024-04-12T10:05:03.419Z,39.31
2024-04-12T10:06:03.517Z,39.54
2024-04-12T10:07:03.565Z,39.20
2024-04-12T10:08:03.618Z,39.46
2024-04-12T10:09:03.685Z,39.58
2024-04-12T10:10:03.796Z,39.66
2024-04-12T10:11:03.817Z,39.62
2024-04-12T10:12:03.953Z,39.29
2024-04-12T10:13:03.964Z,39.50
2024-04-12T10:14:03.962Z,39.41
2024-04-12T10:15:04.050Z,39.62
2024-04-12T10:16:04.136Z,39.63
2024-04-12T10:17:08.549Z,39.70
2024-04-12T10:18:04.537Z,39.42
2024-04-12T10:19:04.325Z,39.56
2024-04-12T10:20:04.178Z,39.50
2024-04-12T10:21:04.234Z,39.67
2024-04-12T10:22:04.253Z,39.41
2024-04-12T10:23:04.186Z,39.62
2024-04-12T10:24:04.228Z,39.67
2024-04-12T10:25:04.192Z,39.63
2024-04-12T10:26:04.177Z,39.65
2024-04-12T10:27:08.759Z,39.80
2024-04-12T10:28:04.232Z,39.74
2024-04-12T10:29:04.196Z,39.80
2024-04-12T10:30:04.245Z,39.81
2024-04-12T10:31:04.252Z,39.90
2024-04-12T10:32:04.273Z,40.06
2024-04-12T10:33:04.579Z,40.16
2024-04-12T10:34:04.384Z,40.18
2024-04-12T10:35:04.190Z,40.24
2024-04-12T10:36:04.248Z,40.32
2024-04-12T10:37:04.185Z,40.41
2024-04-12T10:38:04.223Z,40.43
2024-04-12T10:39:04.281Z,39.56
2024-04-12T10:40:04.250Z,39.65
2024-04-12T10:41:04.251Z,39.13
2024-04-12T10:42:04.274Z,39.78
2024-04-12T10:43:04.226Z,39.54
2024-04-12T10:44:04.236Z,39.61
2024-04-12T10:45:04.387Z,39.81
2024-04-12T10:46:04.242Z,39.90
2024-04-12T10:47:04.270Z,39.73
2024-04-12T10:48:04.288Z,39.91
2024-04-12T10:49:04.228Z,39.96
2024-04-12T10:50:04.231Z,40.04
2024-04-12T10:51:04.258Z,40.06
2024-04-12T10:52:04.220Z,40.25
2024-04-12T10:53:04.229Z,40.43
2024-04-12T10:54:04.242Z,40.70
2024-04-12T10:55:05.280Z,41.33
2024-04-12T10:56:04.477Z,41.61
2024-04-12T10:57:07.338Z,41.94
2024-04-12T10:58:04.237Z,40.94
2024-04-12T10:59:04.247Z,40.88
2024-04-12T11:00:04.277Z,40.75
2024-04-12T11:01:04.304Z,40.63
2024-04-12T11:02:04.315Z,40.56
2024-04-12T11:03:08.911Z,40.54
2024-04-12T11:04:05.447Z,40.57
2024-04-12T11:05:04.296Z,40.56
2024-04-12T11:06:04.387Z,40.52
2024-04-12T11:07:04.266Z,40.56
2024-04-12T11:08:12.200Z,40.54
2024-04-12T11:09:05.286Z,40.56
2024-04-12T11:10:04.283Z,40.56
2024-04-12T11:11:04.276Z,40.52
2024-04-12T11:12:04.324Z,40.54
2024-04-12T11:13:04.278Z,40.49
2024-04-12T11:14:04.269Z,40.46
2024-04-12T11:15:04.302Z,40.49
2024-04-12T11:16:04.299Z,40.50
2024-04-12T11:17:04.423Z,40.52
2024-04-12T11:18:04.776Z,40.49
2024-04-12T11:19:04.834Z,40.49
2024-04-12T11:20:04.780Z,40.40
2024-04-12T11:21:04.938Z,40.46
2024-04-12T11:22:05.039Z,40.48
2024-04-12T11:23:05.138Z,40.48
2024-04-12T11:24:05.302Z,40.44
2024-04-12T11:25:05.354Z,40.41
2024-04-12T11:26:05.560Z,40.41
2024-04-12T11:27:05.946Z,40.41
2024-04-12T11:28:05.766Z,40.40
2024-04-12T11:29:05.884Z,40.35
2024-04-12T11:30:06.075Z,40.31
2024-04-12T11:31:06.145Z,40.30
2024-04-12T11:32:06.259Z,40.30
2024-04-12T11:33:06.820Z,40.26
2024-04-12T11:34:11.769Z,40.25
2024-04-12T11:35:07.508Z,40.21
2024-04-12T11:36:06.516Z,40.26
2024-04-12T11:37:06.410Z,40.24
2024-04-12T11:38:06.430Z,40.24
2024-04-12T11:39:06.437Z,40.20
2024-04-12T11:40:06.415Z,40.21
2024-04-12T11:41:06.420Z,40.16
2024-04-12T11:42:06.598Z,40.15
2024-04-12T11:43:06.669Z,40.09
2024-04-12T11:44:06.777Z,40.10
2024-04-12T11:45:06.969Z,40.06
2024-04-12T11:46:07.038Z,40.04
2024-04-12T11:47:07.250Z,40.04
2024-04-12T11:48:07.465Z,40.00
2024-04-12T11:49:07.759Z,40.01
2024-04-12T11:50:07.571Z,39.96
2024-04-12T11:51:07.709Z,39.96
2024-04-12T11:52:07.815Z,39.92
2024-04-12T11:53:07.962Z,39.87
2024-04-12T11:54:08.188Z,39.86
2024-04-12T11:55:08.252Z,39.84
2024-04-12T11:56:08.349Z,39.78
2024-04-12T11:57:08.550Z,39.79
2024-04-12T11:58:08.602Z,39.73
2024-04-12T11:59:08.716Z,39.72
2024-04-12T12:00:09.026Z,39.67
2024-04-12T12:01:09.002Z,39.67
2024-04-12T12:02:09.155Z,39.64
2024-04-12T12:03:09.287Z,39.66
2024-04-12T12:04:09.409Z,39.61
2024-04-12T12:05:09.480Z,39.58
2024-04-12T12:06:09.693Z,39.53
2024-04-12T12:07:12.027Z,39.52
2024-04-12T12:08:09.911Z,39.44
2024-04-12T12:09:10.001Z,39.38
2024-04-12T12:10:10.034Z,39.36
2024-04-12T12:11:10.054Z,39.38
2024-04-12T12:12:10.192Z,39.48
2024-04-12T12:13:10.179Z,39.44
2024-04-12T12:14:10.234Z,39.39
2024-04-12T12:15:10.345Z,39.32
2024-04-12T12:16:10.336Z,39.40
2024-04-12T12:17:10.414Z,39.40
2024-04-12T12:18:10.586Z,39.32
2024-04-12T12:19:10.523Z,39.42
2024-04-12T12:20:10.610Z,39.43
2024-04-12T12:21:10.753Z,39.43
2024-04-12T12:22:10.815Z,39.39
2024-04-12T12:23:10.962Z,39.21
2024-04-12T12:24:10.991Z,39.12
2024-04-12T12:25:11.095Z,39.08
2024-04-12T12:26:11.247Z,39.05
2024-04-12T12:27:11.395Z,39.00
2024-04-12T12:28:11.362Z,38.97
2024-04-12T12:29:11.501Z,38.93
2024-04-12T12:30:11.575Z,38.90
2024-04-12T12:31:11.624Z,38.89
2024-04-12T12:32:18.135Z,38.89
2024-04-12T12:33:11.884Z,38.87
2024-04-12T12:34:11.807Z,38.85
2024-04-12T12:35:11.727Z,38.85
2024-04-12T12:36:11.975Z,38.82
2024-04-12T12:37:11.739Z,38.80
2024-04-12T12:38:11.756Z,38.79
2024-04-12T12:39:11.825Z,38.73
2024-04-12T12:40:11.749Z,38.72
2024-04-12T12:41:11.767Z,38.66
2024-04-12T12:42:11.876Z,38.63
2024-04-12T12:43:11.738Z,38.60
2024-04-12T12:44:11.725Z,38.59
2024-04-12T12:45:13.827Z,38.55
2024-04-12T12:46:11.788Z,38.55
2024-04-12T12:47:11.758Z,38.54
2024-04-12T12:48:11.853Z,38.49
2024-04-12T12:49:11.770Z,38.48
2024-04-12T12:50:11.745Z,38.44
2024-04-12T12:51:11.803Z,38.43
2024-04-12T12:52:11.752Z,38.38
2024-04-12T12:53:11.747Z,38.38